Astoria Regional Airport
KAST : rendu visible

Aérodrome :











RETROUVEZ-NOUS SUR...

 
LOGIN :

S'inscrire | Disclaimer

   EN    FR    IT 

 









Légende :    VFR   VFR Marginal   IFR   IFR Intensif   IFR Très Intensif
Visi : 
Plafond : 
>= 8 km
>= 3000ft
5 à 8 km
1000 à 3000 ft
1500m à 5 km
500 à 1000 ft
800 à 1500m
200 à 500 ft
< 800m
< 200 ft
Symboles :   Orages  Brouillard  Fortes neiges  Fortes précipitations  Vent > 20 kt






- Altitude de l'aérodrome : 15 ft


KAST - Astoria Regional

DERNIER METAR :
  • 121755Z AUTO VRB04KT 10SM OVC023 16/11 A3008 RMK AO2 SLP186 T01610106 10172 20122 53014

METARs EXPIRÉS :
  • 121728Z AUTO 22004KT 10SM BKN024 BKN037 OVC110 16/11 A3007 RMK AO2 T01610111
  • 121655Z AUTO 28004KT 10SM SCT060 BKN110 17/12 A3006 RMK AO2 SLP180 T01670117
  • 121555Z AUTO VRB03KT 10SM BKN055 OVC100 14/12 A3006 RMK AO2 SLP178 T01440122

TAF KAST
Valide du 12 à 18h jusqu'au 13 à 18h UTC


121725Z 1218/1318 VRB03KT P6SM SCT070 BKN110
FM122000 30007KT P6SM SCT070
FM130200 33008KT P6SM SCT025
FM131100 32003KT P6SM BKN025
FM131700 32005KT P6SM SCT025
FIR KZSE / Amérique du Nord



MET'MAP, la Météo Aéronautique d'un coup d'oeil ! - Copyright ORBIFLY Décembre 2007 - Disclaimer

ORBIFLY MET'MAP TEAM :

Programmation & Développement : Alexandra Zaïnal
Sur une idée originale de : Baudouin d'Aumeries
Assistance à la programmation : Marc-Olivier Méhu
Soutien technique & logistique : Manuel Goepfert

Contact : metmap@orbifly.com




SOURCES & CREDITS :

   NOAA       Earth
Advisory